Lynn Lake, Canada
Current Conditions -  °F | °C
As of 10:30 AM on Sunday 25 Jan 2015 (Local Time) from CYYL Reporting Station
Light Snow Light Snow  
Wind Chill: -12°   Ceiling: 500
Heat Index:   Visibility: 3mi
Dew Point:   Wind: 8mph
Humidity: 92%   Direction: 160°SSE
Pressure: 29.66"   Gusts: NA
Location:  56.85°N, 101.05°W
Report Text: CYYL 251630Z AUTO 16007KT 3SM -SN OVC005 M17/M18 A2966 RMK ICG PAST HR PRESFR SLP085
Loading
Personal Weather Stations






























Interactive Weather Map New forecast layout! Learn more

10-Day Weather Forecast

Advertisements
Track Severe Weather on mobile